sensor_id;sensor_type;location;lat;lon;timestamp;P1;durP1;ratioP1;P2;durP2;ratioP2
3433;SDS011;1730;41.932;25.548;2023-04-06T00:01:33;11.90;;;10.60;;
3433;SDS011;1730;41.932;25.548;2023-04-06T00:03:59;11.33;;;10.27;;
3433;SDS011;1730;41.932;25.548;2023-04-06T00:06:25;12.17;;;10.97;;
3433;SDS011;1730;41.932;25.548;2023-04-06T00:08:50;11.30;;;10.20;;
3433;SDS011;1730;41.932;25.548;2023-04-06T00:11:16;12.23;;;10.93;;
3433;SDS011;1730;41.932;25.548;2023-04-06T00:13:42;12.23;;;11.03;;
3433;SDS011;1730;41.932;25.548;2023-04-06T00:16:07;11.77;;;10.67;;
3433;SDS011;1730;41.932;25.548;2023-04-06T00:18:33;13.03;;;10.60;;
3433;SDS011;1730;41.932;25.548;2023-04-06T00:20:58;11.47;;;10.27;;
3433;SDS011;1730;41.932;25.548;2023-04-06T00:23:24;11.37;;;10.27;;
3433;SDS011;1730;41.932;25.548;2023-04-06T00:25:50;10.97;;;9.67;;
3433;SDS011;1730;41.932;25.548;2023-04-06T00:28:15;11.07;;;10.07;;
3433;SDS011;1730;41.932;25.548;2023-04-06T00:30:41;11.40;;;10.20;;
3433;SDS011;1730;41.932;25.548;2023-04-06T00:33:07;10.73;;;9.83;;
3433;SDS011;1730;41.932;25.548;2023-04-06T00:35:32;10.50;;;9.50;;
3433;SDS011;1730;41.932;25.548;2023-04-06T00:37:58;11.20;;;10.00;;
3433;SDS011;1730;41.932;25.548;2023-04-06T00:40:24;10.80;;;9.70;;
3433;SDS011;1730;41.932;25.548;2023-04-06T00:42:49;12.10;;;10.80;;
3433;SDS011;1730;41.932;25.548;2023-04-06T00:45:15;10.60;;;9.60;;
3433;SDS011;1730;41.932;25.548;2023-04-06T00:47:41;10.30;;;9.20;;
3433;SDS011;1730;41.932;25.548;2023-04-06T00:50:07;12.23;;;9.77;;
3433;SDS011;1730;41.932;25.548;2023-04-06T00:52:33;9.67;;;8.77;;
3433;SDS011;1730;41.932;25.548;2023-04-06T00:54:59;10.30;;;9.13;;
3433;SDS011;1730;41.932;25.548;2023-04-06T00:57:25;9.47;;;8.57;;
3433;SDS011;1730;41.932;25.548;2023-04-06T00:59:51;9.30;;;8.40;;
3433;SDS011;1730;41.932;25.548;2023-04-06T01:02:17;9.87;;;8.97;;
3433;SDS011;1730;41.932;25.548;2023-04-06T01:04:43;9.47;;;8.57;;
3433;SDS011;1730;41.932;25.548;2023-04-06T01:07:09;11.30;;;9.40;;
3433;SDS011;1730;41.932;25.548;2023-04-06T01:09:35;10.33;;;9.40;;
3433;SDS011;1730;41.932;25.548;2023-04-06T01:12:01;9.63;;;8.80;;
3433;SDS011;1730;41.932;25.548;2023-04-06T01:14:27;9.60;;;8.70;;
3433;SDS011;1730;41.932;25.548;2023-04-06T01:16:53;10.03;;;9.13;;
3433;SDS011;1730;41.932;25.548;2023-04-06T01:19:18;9.40;;;8.50;;
3433;SDS011;1730;41.932;25.548;2023-04-06T01:21:46;10.30;;;9.27;;
3433;SDS011;1730;41.932;25.548;2023-04-06T01:24:12;9.13;;;8.20;;
3433;SDS011;1730;41.932;25.548;2023-04-06T01:26:38;9.60;;;8.70;;
3433;SDS011;1730;41.932;25.548;2023-04-06T01:29:03;8.13;;;7.33;;
3433;SDS011;1730;41.932;25.548;2023-04-06T01:31:29;9.17;;;8.37;;
3433;SDS011;1730;41.932;25.548;2023-04-06T01:33:55;8.80;;;7.90;;
3433;SDS011;1730;41.932;25.548;2023-04-06T01:36:21;8.90;;;8.10;;
3433;SDS011;1730;41.932;25.548;2023-04-06T01:38:47;8.60;;;8.00;;
3433;SDS011;1730;41.932;25.548;2023-04-06T01:41:12;8.13;;;7.53;;
3433;SDS011;1730;41.932;25.548;2023-04-06T01:43:38;9.83;;;8.93;;
3433;SDS011;1730;41.932;25.548;2023-04-06T01:46:03;8.53;;;7.73;;
3433;SDS011;1730;41.932;25.548;2023-04-06T01:48:30;8.60;;;7.90;;
3433;SDS011;1730;41.932;25.548;2023-04-06T01:50:55;7.93;;;7.33;;
3433;SDS011;1730;41.932;25.548;2023-04-06T01:53:21;8.27;;;7.60;;
3433;SDS011;1730;41.932;25.548;2023-04-06T01:55:48;8.60;;;7.90;;
3433;SDS011;1730;41.932;25.548;2023-04-06T01:58:14;9.43;;;8.63;;
3433;SDS011;1730;41.932;25.548;2023-04-06T02:00:39;8.97;;;8.20;;
3433;SDS011;1730;41.932;25.548;2023-04-06T02:03:05;8.87;;;8.10;;
3433;SDS011;1730;41.932;25.548;2023-04-06T02:05:31;9.23;;;8.43;;
3433;SDS011;1730;41.932;25.548;2023-04-06T02:08:03;8.67;;;7.87;;
3433;SDS011;1730;41.932;25.548;2023-04-06T02:10:32;8.80;;;6.80;;
3433;SDS011;1730;41.932;25.548;2023-04-06T02:12:59;8.50;;;7.80;;
3433;SDS011;1730;41.932;25.548;2023-04-06T02:15:25;8.67;;;7.90;;
3433;SDS011;1730;41.932;25.548;2023-04-06T02:17:52;8.30;;;7.50;;
3433;SDS011;1730;41.932;25.548;2023-04-06T02:20:17;7.13;;;6.60;;
3433;SDS011;1730;41.932;25.548;2023-04-06T02:22:43;8.33;;;7.60;;
3433;SDS011;1730;41.932;25.548;2023-04-06T02:25:09;8.20;;;7.50;;
3433;SDS011;1730;41.932;25.548;2023-04-06T02:27:34;8.47;;;7.63;;
3433;SDS011;1730;41.932;25.548;2023-04-06T02:30:01;7.67;;;7.07;;
3433;SDS011;1730;41.932;25.548;2023-04-06T02:32:27;8.47;;;7.77;;
3433;SDS011;1730;41.932;25.548;2023-04-06T02:34:53;7.67;;;7.00;;
3433;SDS011;1730;41.932;25.548;2023-04-06T02:37:18;7.30;;;6.80;;
3433;SDS011;1730;41.932;25.548;2023-04-06T02:39:44;8.13;;;7.43;;
3433;SDS011;1730;41.932;25.548;2023-04-06T02:42:10;7.20;;;6.60;;
3433;SDS011;1730;41.932;25.548;2023-04-06T02:44:35;8.13;;;7.13;;
3433;SDS011;1730;41.932;25.548;2023-04-06T02:47:01;7.37;;;6.77;;
3433;SDS011;1730;41.932;25.548;2023-04-06T02:49:26;8.00;;;7.40;;
3433;SDS011;1730;41.932;25.548;2023-04-06T02:51:52;7.60;;;6.93;;
3433;SDS011;1730;41.932;25.548;2023-04-06T02:54:18;7.97;;;7.37;;
3433;SDS011;1730;41.932;25.548;2023-04-06T02:56:43;7.60;;;6.90;;
3433;SDS011;1730;41.932;25.548;2023-04-06T02:59:09;7.93;;;7.30;;
3433;SDS011;1730;41.932;25.548;2023-04-06T03:01:35;7.90;;;7.20;;
3433;SDS011;1730;41.932;25.548;2023-04-06T03:04:01;8.03;;;7.27;;
3433;SDS011;1730;41.932;25.548;2023-04-06T03:06:27;8.60;;;7.80;;
3433;SDS011;1730;41.932;25.548;2023-04-06T03:08:52;8.07;;;7.47;;
3433;SDS011;1730;41.932;25.548;2023-04-06T03:11:17;8.60;;;7.90;;
3433;SDS011;1730;41.932;25.548;2023-04-06T03:13:44;8.50;;;7.70;;
3433;SDS011;1730;41.932;25.548;2023-04-06T03:16:09;10.83;;;9.60;;
3433;SDS011;1730;41.932;25.548;2023-04-06T03:18:35;10.97;;;8.63;;
3433;SDS011;1730;41.932;25.548;2023-04-06T03:21:02;8.73;;;7.87;;
3433;SDS011;1730;41.932;25.548;2023-04-06T03:23:28;9.00;;;8.20;;
3433;SDS011;1730;41.932;25.548;2023-04-06T03:25:53;9.00;;;8.20;;
3433;SDS011;1730;41.932;25.548;2023-04-06T03:28:19;8.70;;;8.00;;
3433;SDS011;1730;41.932;25.548;2023-04-06T03:30:45;9.57;;;8.77;;
3433;SDS011;1730;41.932;25.548;2023-04-06T03:33:10;9.73;;;8.87;;
3433;SDS011;1730;41.932;25.548;2023-04-06T03:35:36;9.67;;;8.77;;
3433;SDS011;1730;41.932;25.548;2023-04-06T03:38:02;10.43;;;9.13;;
3433;SDS011;1730;41.932;25.548;2023-04-06T03:40:28;9.80;;;8.90;;
3433;SDS011;1730;41.932;25.548;2023-04-06T03:42:55;8.90;;;8.10;;
3433;SDS011;1730;41.932;25.548;2023-04-06T03:45:20;9.03;;;8.17;;
3433;SDS011;1730;41.932;25.548;2023-04-06T03:47:46;9.20;;;8.30;;
3433;SDS011;1730;41.932;25.548;2023-04-06T03:50:11;9.63;;;8.73;;
3433;SDS011;1730;41.932;25.548;2023-04-06T03:52:37;12.13;;;9.47;;
3433;SDS011;1730;41.932;25.548;2023-04-06T03:55:03;8.47;;;7.73;;
3433;SDS011;1730;41.932;25.548;2023-04-06T03:57:28;9.23;;;8.33;;
3433;SDS011;1730;41.932;25.548;2023-04-06T03:59:55;8.53;;;7.83;;
3433;SDS011;1730;41.932;25.548;2023-04-06T04:02:21;8.23;;;7.43;;
3433;SDS011;1730;41.932;25.548;2023-04-06T04:04:46;10.00;;;8.70;;
3433;SDS011;1730;41.932;25.548;2023-04-06T04:07:12;9.13;;;8.27;;
3433;SDS011;1730;41.932;25.548;2023-04-06T04:09:38;8.77;;;7.93;;
3433;SDS011;1730;41.932;25.548;2023-04-06T04:12:03;10.10;;;8.53;;
3433;SDS011;1730;41.932;25.548;2023-04-06T04:14:29;9.67;;;8.73;;
3433;SDS011;1730;41.932;25.548;2023-04-06T04:16:54;9.37;;;8.47;;
3433;SDS011;1730;41.932;25.548;2023-04-06T04:19:20;11.90;;;10.07;;
3433;SDS011;1730;41.932;25.548;2023-04-06T04:21:46;8.60;;;7.80;;
3433;SDS011;1730;41.932;25.548;2023-04-06T04:24:12;10.37;;;8.83;;
3433;SDS011;1730;41.932;25.548;2023-04-06T04:26:38;9.77;;;8.40;;
3433;SDS011;1730;41.932;25.548;2023-04-06T04:29:04;11.27;;;10.03;;
3433;SDS011;1730;41.932;25.548;2023-04-06T04:31:30;10.10;;;9.03;;
3433;SDS011;1730;41.932;25.548;2023-04-06T04:33:56;9.27;;;8.47;;
3433;SDS011;1730;41.932;25.548;2023-04-06T04:36:22;8.90;;;8.10;;
3433;SDS011;1730;41.932;25.548;2023-04-06T04:38:49;9.00;;;7.97;;
3433;SDS011;1730;41.932;25.548;2023-04-06T04:41:14;8.30;;;7.47;;
3433;SDS011;1730;41.932;25.548;2023-04-06T04:43:40;8.93;;;8.13;;
3433;SDS011;1730;41.932;25.548;2023-04-06T04:46:05;9.77;;;8.87;;
3433;SDS011;1730;41.932;25.548;2023-04-06T04:48:32;10.77;;;8.60;;
3433;SDS011;1730;41.932;25.548;2023-04-06T04:50:58;8.73;;;7.93;;
3433;SDS011;1730;41.932;25.548;2023-04-06T04:53:23;9.23;;;8.37;;
3433;SDS011;1730;41.932;25.548;2023-04-06T04:55:49;9.50;;;8.70;;
3433;SDS011;1730;41.932;25.548;2023-04-06T04:58:14;9.87;;;8.97;;
3433;SDS011;1730;41.932;25.548;2023-04-06T05:00:48;8.83;;;8.03;;
3433;SDS011;1730;41.932;25.548;2023-04-06T05:03:18;9.93;;;9.03;;
3433;SDS011;1730;41.932;25.548;2023-04-06T05:05:47;9.80;;;8.97;;
3433;SDS011;1730;41.932;25.548;2023-04-06T05:08:13;9.13;;;8.23;;
3433;SDS011;1730;41.932;25.548;2023-04-06T05:10:38;10.20;;;8.83;;
3433;SDS011;1730;41.932;25.548;2023-04-06T05:13:04;9.70;;;8.67;;
3433;SDS011;1730;41.932;25.548;2023-04-06T05:15:31;13.40;;;9.67;;
3433;SDS011;1730;41.932;25.548;2023-04-06T05:17:57;12.77;;;9.90;;
3433;SDS011;1730;41.932;25.548;2023-04-06T05:20:22;12.03;;;10.67;;
3433;SDS011;1730;41.932;25.548;2023-04-06T05:22:49;12.63;;;10.80;;
3433;SDS011;1730;41.932;25.548;2023-04-06T05:25:17;10.90;;;9.90;;
3433;SDS011;1730;41.932;25.548;2023-04-06T05:27:43;10.10;;;9.13;;
3433;SDS011;1730;41.932;25.548;2023-04-06T05:30:08;12.23;;;9.50;;
3433;SDS011;1730;41.932;25.548;2023-04-06T05:32:34;13.33;;;11.90;;
3433;SDS011;1730;41.932;25.548;2023-04-06T05:35:00;9.77;;;8.90;;
3433;SDS011;1730;41.932;25.548;2023-04-06T05:37:26;12.57;;;10.30;;
3433;SDS011;1730;41.932;25.548;2023-04-06T05:39:51;12.67;;;9.30;;
3433;SDS011;1730;41.932;25.548;2023-04-06T05:42:17;10.03;;;9.03;;
3433;SDS011;1730;41.932;25.548;2023-04-06T05:44:42;14.73;;;11.17;;
3433;SDS011;1730;41.932;25.548;2023-04-06T05:47:08;14.50;;;11.83;;
3433;SDS011;1730;41.932;25.548;2023-04-06T05:49:33;13.23;;;10.17;;
3433;SDS011;1730;41.932;25.548;2023-04-06T05:51:59;12.07;;;10.40;;
3433;SDS011;1730;41.932;25.548;2023-04-06T05:54:25;9.83;;;9.00;;
3433;SDS011;1730;41.932;25.548;2023-04-06T05:56:51;10.00;;;9.10;;
3433;SDS011;1730;41.932;25.548;2023-04-06T05:59:16;10.73;;;9.60;;
3433;SDS011;1730;41.932;25.548;2023-04-06T06:01:43;9.57;;;8.63;;
3433;SDS011;1730;41.932;25.548;2023-04-06T06:04:08;12.90;;;9.70;;
3433;SDS011;1730;41.932;25.548;2023-04-06T06:06:34;11.27;;;10.10;;
3433;SDS011;1730;41.932;25.548;2023-04-06T06:09:00;10.53;;;9.43;;
3433;SDS011;1730;41.932;25.548;2023-04-06T06:11:27;10.60;;;9.60;;
3433;SDS011;1730;41.932;25.548;2023-04-06T06:13:53;10.37;;;9.37;;
3433;SDS011;1730;41.932;25.548;2023-04-06T06:16:18;11.70;;;10.50;;
3433;SDS011;1730;41.932;25.548;2023-04-06T06:18:44;17.40;;;13.67;;
3433;SDS011;1730;41.932;25.548;2023-04-06T06:21:10;12.07;;;10.53;;
3433;SDS011;1730;41.932;25.548;2023-04-06T06:23:37;12.47;;;10.43;;
3433;SDS011;1730;41.932;25.548;2023-04-06T06:26:03;12.03;;;10.83;;
3433;SDS011;1730;41.932;25.548;2023-04-06T06:28:29;12.53;;;11.27;;
3433;SDS011;1730;41.932;25.548;2023-04-06T06:30:55;11.00;;;9.83;;
3433;SDS011;1730;41.932;25.548;2023-04-06T06:33:20;10.90;;;9.80;;
3433;SDS011;1730;41.932;25.548;2023-04-06T06:35:46;11.37;;;10.30;;
3433;SDS011;1730;41.932;25.548;2023-04-06T06:38:12;15.37;;;13.33;;
3433;SDS011;1730;41.932;25.548;2023-04-06T06:40:37;14.43;;;11.87;;
3433;SDS011;1730;41.932;25.548;2023-04-06T06:43:03;10.30;;;9.30;;
3433;SDS011;1730;41.932;25.548;2023-04-06T06:45:28;10.27;;;9.27;;
3433;SDS011;1730;41.932;25.548;2023-04-06T06:47:54;10.33;;;9.23;;
3433;SDS011;1730;41.932;25.548;2023-04-06T06:50:20;11.07;;;8.33;;
3433;SDS011;1730;41.932;25.548;2023-04-06T06:52:46;10.00;;;9.07;;
3433;SDS011;1730;41.932;25.548;2023-04-06T06:55:11;8.40;;;7.60;;
3433;SDS011;1730;41.932;25.548;2023-04-06T06:57:37;11.30;;;9.20;;
3433;SDS011;1730;41.932;25.548;2023-04-06T07:00:03;8.73;;;7.93;;
3433;SDS011;1730;41.932;25.548;2023-04-06T07:02:30;8.77;;;8.00;;
3433;SDS011;1730;41.932;25.548;2023-04-06T07:04:56;8.93;;;8.13;;
3433;SDS011;1730;41.932;25.548;2023-04-06T07:07:22;7.87;;;7.17;;
3433;SDS011;1730;41.932;25.548;2023-04-06T07:09:47;10.20;;;8.80;;
3433;SDS011;1730;41.932;25.548;2023-04-06T07:12:13;7.73;;;7.13;;
3433;SDS011;1730;41.932;25.548;2023-04-06T07:14:38;8.40;;;7.33;;
3433;SDS011;1730;41.932;25.548;2023-04-06T07:17:04;8.30;;;7.50;;
3433;SDS011;1730;41.932;25.548;2023-04-06T07:19:30;7.93;;;7.20;;
3433;SDS011;1730;41.932;25.548;2023-04-06T07:21:56;8.40;;;7.77;;
3433;SDS011;1730;41.932;25.548;2023-04-06T07:24:21;11.77;;;10.60;;
3433;SDS011;1730;41.932;25.548;2023-04-06T07:26:46;21.03;;;16.43;;
3433;SDS011;1730;41.932;25.548;2023-04-06T07:29:13;10.73;;;9.20;;
3433;SDS011;1730;41.932;25.548;2023-04-06T07:31:39;8.77;;;8.07;;
3433;SDS011;1730;41.932;25.548;2023-04-06T07:34:05;7.10;;;6.50;;
3433;SDS011;1730;41.932;25.548;2023-04-06T07:36:34;7.87;;;7.17;;
3433;SDS011;1730;41.932;25.548;2023-04-06T07:38:59;6.70;;;6.30;;
3433;SDS011;1730;41.932;25.548;2023-04-06T07:41:25;7.70;;;7.10;;
3433;SDS011;1730;41.932;25.548;2023-04-06T07:43:51;7.90;;;7.00;;
3433;SDS011;1730;41.932;25.548;2023-04-06T07:46:16;9.23;;;8.33;;
3433;SDS011;1730;41.932;25.548;2023-04-06T07:48:42;6.87;;;6.40;;
3433;SDS011;1730;41.932;25.548;2023-04-06T07:51:07;8.40;;;7.53;;
3433;SDS011;1730;41.932;25.548;2023-04-06T07:53:34;6.93;;;6.43;;
3433;SDS011;1730;41.932;25.548;2023-04-06T07:55:59;7.57;;;7.00;;
3433;SDS011;1730;41.932;25.548;2023-04-06T07:58:25;7.00;;;6.50;;
3433;SDS011;1730;41.932;25.548;2023-04-06T08:00:51;7.83;;;6.90;;
3433;SDS011;1730;41.932;25.548;2023-04-06T08:03:17;7.30;;;6.70;;
3433;SDS011;1730;41.932;25.548;2023-04-06T08:05:42;6.83;;;6.23;;
3433;SDS011;1730;41.932;25.548;2023-04-06T08:08:08;7.87;;;7.20;;
3433;SDS011;1730;41.932;25.548;2023-04-06T08:10:34;7.13;;;6.50;;
3433;SDS011;1730;41.932;25.548;2023-04-06T08:13:00;7.27;;;6.67;;
3433;SDS011;1730;41.932;25.548;2023-04-06T08:15:25;6.60;;;6.20;;
3433;SDS011;1730;41.932;25.548;2023-04-06T08:17:51;8.07;;;7.43;;
3433;SDS011;1730;41.932;25.548;2023-04-06T08:20:17;6.93;;;6.33;;
3433;SDS011;1730;41.932;25.548;2023-04-06T08:22:43;6.87;;;6.37;;
3433;SDS011;1730;41.932;25.548;2023-04-06T08:25:08;7.13;;;6.53;;
3433;SDS011;1730;41.932;25.548;2023-04-06T08:27:34;8.27;;;7.43;;
3433;SDS011;1730;41.932;25.548;2023-04-06T08:30:00;7.70;;;7.10;;
3433;SDS011;1730;41.932;25.548;2023-04-06T08:32:25;8.27;;;7.60;;
3433;SDS011;1730;41.932;25.548;2023-04-06T08:34:53;8.20;;;7.30;;
3433;SDS011;1730;41.932;25.548;2023-04-06T08:37:20;7.57;;;7.03;;
3433;SDS011;1730;41.932;25.548;2023-04-06T08:39:45;8.40;;;7.67;;
3433;SDS011;1730;41.932;25.548;2023-04-06T08:42:12;9.10;;;8.13;;
3433;SDS011;1730;41.932;25.548;2023-04-06T08:44:44;9.40;;;8.43;;
3433;SDS011;1730;41.932;25.548;2023-04-06T08:47:11;8.43;;;7.53;;
3433;SDS011;1730;41.932;25.548;2023-04-06T08:49:37;7.57;;;6.90;;
3433;SDS011;1730;41.932;25.548;2023-04-06T08:52:05;8.20;;;7.40;;
3433;SDS011;1730;41.932;25.548;2023-04-06T08:54:36;7.20;;;6.50;;
3433;SDS011;1730;41.932;25.548;2023-04-06T08:57:03;7.33;;;6.73;;
3433;SDS011;1730;41.932;25.548;2023-04-06T08:59:32;7.80;;;7.20;;
3433;SDS011;1730;41.932;25.548;2023-04-06T09:01:57;7.23;;;6.63;;
3433;SDS011;1730;41.932;25.548;2023-04-06T09:04:26;6.90;;;6.40;;
3433;SDS011;1730;41.932;25.548;2023-04-06T09:06:52;7.27;;;6.70;;
3433;SDS011;1730;41.932;25.548;2023-04-06T09:09:17;7.57;;;6.97;;
3433;SDS011;1730;41.932;25.548;2023-04-06T09:11:47;7.57;;;6.80;;
3433;SDS011;1730;41.932;25.548;2023-04-06T09:14:14;7.80;;;7.20;;
3433;SDS011;1730;41.932;25.548;2023-04-06T09:16:41;7.70;;;6.90;;
3433;SDS011;1730;41.932;25.548;2023-04-06T09:19:09;7.57;;;6.90;;
3433;SDS011;1730;41.932;25.548;2023-04-06T09:21:35;6.70;;;6.30;;
3433;SDS011;1730;41.932;25.548;2023-04-06T09:24:02;8.83;;;6.80;;
3433;SDS011;1730;41.932;25.548;2023-04-06T09:26:28;8.57;;;7.80;;
3433;SDS011;1730;41.932;25.548;2023-04-06T09:28:54;7.53;;;6.87;;
3433;SDS011;1730;41.932;25.548;2023-04-06T09:31:22;7.30;;;6.80;;
3433;SDS011;1730;41.932;25.548;2023-04-06T09:33:49;7.20;;;6.70;;
3433;SDS011;1730;41.932;25.548;2023-04-06T09:36:14;7.07;;;6.57;;
3433;SDS011;1730;41.932;25.548;2023-04-06T09:38:53;6.50;;;6.10;;
3433;SDS011;1730;41.932;25.548;2023-04-06T09:41:34;6.53;;;6.07;;
3433;SDS011;1730;41.932;25.548;2023-04-06T09:44:04;6.17;;;5.77;;
3433;SDS011;1730;41.932;25.548;2023-04-06T09:46:40;6.90;;;6.40;;
3433;SDS011;1730;41.932;25.548;2023-04-06T09:49:07;7.40;;;6.77;;
3433;SDS011;1730;41.932;25.548;2023-04-06T09:51:41;7.90;;;7.10;;
3433;SDS011;1730;41.932;25.548;2023-04-06T09:54:15;7.80;;;7.10;;
3433;SDS011;1730;41.932;25.548;2023-04-06T09:59:13;7.73;;;7.10;;
3433;SDS011;1730;41.932;25.548;2023-04-06T10:01:44;8.47;;;7.77;;
3433;SDS011;1730;41.932;25.548;2023-04-06T10:06:58;6.43;;;6.03;;
3433;SDS011;1730;41.932;25.548;2023-04-06T10:09:25;7.27;;;6.57;;
3433;SDS011;1730;41.932;25.548;2023-04-06T10:12:00;6.27;;;5.77;;
3433;SDS011;1730;41.932;25.548;2023-04-06T10:14:31;7.10;;;6.60;;
3433;SDS011;1730;41.932;25.548;2023-04-06T10:16:58;7.00;;;6.50;;
3433;SDS011;1730;41.932;25.548;2023-04-06T10:19:25;6.90;;;6.40;;
3433;SDS011;1730;41.932;25.548;2023-04-06T10:21:54;5.77;;;5.37;;
3433;SDS011;1730;41.932;25.548;2023-04-06T10:24:23;6.53;;;5.63;;
3433;SDS011;1730;41.932;25.548;2023-04-06T10:26:58;25.30;;;16.17;;
3433;SDS011;1730;41.932;25.548;2023-04-06T10:29:27;6.07;;;5.57;;
3433;SDS011;1730;41.932;25.548;2023-04-06T10:31:53;6.20;;;5.30;;
3433;SDS011;1730;41.932;25.548;2023-04-06T10:34:20;5.00;;;4.70;;
3433;SDS011;1730;41.932;25.548;2023-04-06T10:36:47;5.80;;;5.20;;
3433;SDS011;1730;41.932;25.548;2023-04-06T10:39:14;6.37;;;5.77;;
3433;SDS011;1730;41.932;25.548;2023-04-06T10:41:50;6.00;;;5.60;;
3433;SDS011;1730;41.932;25.548;2023-04-06T10:44:23;7.10;;;6.60;;
3433;SDS011;1730;41.932;25.548;2023-04-06T10:46:56;7.17;;;5.73;;
3433;SDS011;1730;41.932;25.548;2023-04-06T10:49:26;7.40;;;6.70;;
3433;SDS011;1730;41.932;25.548;2023-04-06T10:51:53;6.10;;;5.70;;
3433;SDS011;1730;41.932;25.548;2023-04-06T10:54:23;5.60;;;5.30;;
3433;SDS011;1730;41.932;25.548;2023-04-06T10:56:50;6.80;;;6.20;;
3433;SDS011;1730;41.932;25.548;2023-04-06T10:59:22;6.03;;;5.63;;
3433;SDS011;1730;41.932;25.548;2023-04-06T11:01:49;6.17;;;5.77;;
3433;SDS011;1730;41.932;25.548;2023-04-06T11:04:15;5.20;;;4.70;;
3433;SDS011;1730;41.932;25.548;2023-04-06T11:06:45;5.73;;;5.20;;
3433;SDS011;1730;41.932;25.548;2023-04-06T11:09:22;7.67;;;5.60;;
3433;SDS011;1730;41.932;25.548;2023-04-06T11:11:52;4.43;;;4.23;;
3433;SDS011;1730;41.932;25.548;2023-04-06T11:14:18;6.43;;;6.03;;
3433;SDS011;1730;41.932;25.548;2023-04-06T11:16:46;7.07;;;6.50;;
3433;SDS011;1730;41.932;25.548;2023-04-06T11:19:37;7.00;;;6.50;;
3433;SDS011;1730;41.932;25.548;2023-04-06T11:22:06;5.60;;;5.20;;
3433;SDS011;1730;41.932;25.548;2023-04-06T11:24:34;6.23;;;5.67;;
3433;SDS011;1730;41.932;25.548;2023-04-06T11:26:59;6.23;;;5.63;;
3433;SDS011;1730;41.932;25.548;2023-04-06T11:29:29;5.37;;;5.07;;
3433;SDS011;1730;41.932;25.548;2023-04-06T11:34:28;6.27;;;5.80;;
3433;SDS011;1730;41.932;25.548;2023-04-06T11:36:56;5.70;;;5.30;;
3433;SDS011;1730;41.932;25.548;2023-04-06T11:39:24;5.43;;;5.13;;
3433;SDS011;1730;41.932;25.548;2023-04-06T11:41:51;5.60;;;5.30;;
3433;SDS011;1730;41.932;25.548;2023-04-06T11:44:31;6.70;;;6.20;;
3433;SDS011;1730;41.932;25.548;2023-04-06T11:46:58;6.70;;;6.27;;
3433;SDS011;1730;41.932;25.548;2023-04-06T11:49:29;6.33;;;5.93;;
3433;SDS011;1730;41.932;25.548;2023-04-06T11:51:56;6.50;;;5.90;;
3433;SDS011;1730;41.932;25.548;2023-04-06T11:54:32;6.73;;;6.23;;
3433;SDS011;1730;41.932;25.548;2023-04-06T11:57:05;5.93;;;5.53;;
3433;SDS011;1730;41.932;25.548;2023-04-06T11:59:35;5.90;;;5.50;;
3433;SDS011;1730;41.932;25.548;2023-04-06T12:02:01;7.23;;;6.73;;
3433;SDS011;1730;41.932;25.548;2023-04-06T12:04:27;7.20;;;6.60;;
3433;SDS011;1730;41.932;25.548;2023-04-06T12:06:53;6.10;;;5.70;;
3433;SDS011;1730;41.932;25.548;2023-04-06T12:09:19;6.60;;;6.20;;
3433;SDS011;1730;41.932;25.548;2023-04-06T12:11:44;6.70;;;6.20;;
3433;SDS011;1730;41.932;25.548;2023-04-06T12:14:12;6.20;;;5.80;;
3433;SDS011;1730;41.932;25.548;2023-04-06T12:16:38;7.27;;;6.67;;
3433;SDS011;1730;41.932;25.548;2023-04-06T12:19:03;6.20;;;5.80;;
3433;SDS011;1730;41.932;25.548;2023-04-06T12:21:30;6.97;;;6.30;;
3433;SDS011;1730;41.932;25.548;2023-04-06T12:23:59;5.40;;;5.00;;
3433;SDS011;1730;41.932;25.548;2023-04-06T12:26:26;6.10;;;5.60;;
3433;SDS011;1730;41.932;25.548;2023-04-06T12:28:52;7.80;;;6.10;;
3433;SDS011;1730;41.932;25.548;2023-04-06T12:31:18;7.77;;;7.07;;
3433;SDS011;1730;41.932;25.548;2023-04-06T12:33:50;7.27;;;6.67;;
3433;SDS011;1730;41.932;25.548;2023-04-06T12:36:17;6.37;;;5.87;;
3433;SDS011;1730;41.932;25.548;2023-04-06T12:38:47;6.50;;;6.00;;
3433;SDS011;1730;41.932;25.548;2023-04-06T12:41:14;6.73;;;6.33;;
3433;SDS011;1730;41.932;25.548;2023-04-06T12:43:40;8.70;;;6.43;;
3433;SDS011;1730;41.932;25.548;2023-04-06T12:46:07;6.60;;;6.10;;
3433;SDS011;1730;41.932;25.548;2023-04-06T12:48:36;5.97;;;5.60;;
3433;SDS011;1730;41.932;25.548;2023-04-06T12:51:03;5.87;;;5.47;;
3433;SDS011;1730;41.932;25.548;2023-04-06T12:53:31;6.73;;;6.23;;
3433;SDS011;1730;41.932;25.548;2023-04-06T12:55:57;5.63;;;5.13;;
3433;SDS011;1730;41.932;25.548;2023-04-06T12:58:25;5.73;;;5.23;;
3433;SDS011;1730;41.932;25.548;2023-04-06T13:00:55;5.40;;;5.07;;
3433;SDS011;1730;41.932;25.548;2023-04-06T13:03:27;6.17;;;5.77;;
3433;SDS011;1730;41.932;25.548;2023-04-06T13:05:53;6.00;;;5.43;;
3433;SDS011;1730;41.932;25.548;2023-04-06T13:08:18;5.57;;;5.07;;
3433;SDS011;1730;41.932;25.548;2023-04-06T13:10:49;7.73;;;4.40;;
3433;SDS011;1730;41.932;25.548;2023-04-06T13:13:17;7.93;;;7.33;;
3433;SDS011;1730;41.932;25.548;2023-04-06T13:15:43;5.80;;;5.40;;
3433;SDS011;1730;41.932;25.548;2023-04-06T13:18:10;5.10;;;4.80;;
3433;SDS011;1730;41.932;25.548;2023-04-06T13:20:35;5.67;;;5.37;;
3433;SDS011;1730;41.932;25.548;2023-04-06T13:23:01;5.67;;;5.37;;
3433;SDS011;1730;41.932;25.548;2023-04-06T13:25:27;5.97;;;5.47;;
3433;SDS011;1730;41.932;25.548;2023-04-06T13:27:53;5.97;;;5.53;;
3433;SDS011;1730;41.932;25.548;2023-04-06T13:30:20;6.60;;;6.10;;
3433;SDS011;1730;41.932;25.548;2023-04-06T13:32:46;5.93;;;5.53;;
3433;SDS011;1730;41.932;25.548;2023-04-06T13:35:12;8.03;;;5.70;;
3433;SDS011;1730;41.932;25.548;2023-04-06T13:37:38;6.17;;;5.77;;
3433;SDS011;1730;41.932;25.548;2023-04-06T13:40:05;6.43;;;6.03;;
3433;SDS011;1730;41.932;25.548;2023-04-06T13:42:33;6.03;;;5.40;;
3433;SDS011;1730;41.932;25.548;2023-04-06T13:45:01;6.17;;;5.67;;
3433;SDS011;1730;41.932;25.548;2023-04-06T13:47:27;7.07;;;6.60;;
3433;SDS011;1730;41.932;25.548;2023-04-06T13:49:52;6.30;;;5.90;;
3433;SDS011;1730;41.932;25.548;2023-04-06T13:52:19;6.50;;;6.10;;
3433;SDS011;1730;41.932;25.548;2023-04-06T13:54:46;6.20;;;5.70;;
3433;SDS011;1730;41.932;25.548;2023-04-06T13:57:12;6.00;;;5.60;;
3433;SDS011;1730;41.932;25.548;2023-04-06T13:59:38;5.23;;;4.93;;
3433;SDS011;1730;41.932;25.548;2023-04-06T14:02:04;7.60;;;6.93;;
3433;SDS011;1730;41.932;25.548;2023-04-06T14:04:39;5.83;;;5.30;;
3433;SDS011;1730;41.932;25.548;2023-04-06T14:07:06;7.70;;;5.30;;
3433;SDS011;1730;41.932;25.548;2023-04-06T14:09:32;7.00;;;5.50;;
3433;SDS011;1730;41.932;25.548;2023-04-06T14:11:58;5.23;;;4.90;;
3433;SDS011;1730;41.932;25.548;2023-04-06T14:14:24;5.67;;;5.30;;
3433;SDS011;1730;41.932;25.548;2023-04-06T14:16:51;5.83;;;5.30;;
3433;SDS011;1730;41.932;25.548;2023-04-06T14:19:17;6.10;;;5.70;;
3433;SDS011;1730;41.932;25.548;2023-04-06T14:21:43;5.37;;;4.97;;
3433;SDS011;1730;41.932;25.548;2023-04-06T14:24:13;4.53;;;4.23;;
3433;SDS011;1730;41.932;25.548;2023-04-06T14:26:39;4.97;;;4.67;;
3433;SDS011;1730;41.932;25.548;2023-04-06T14:29:06;5.50;;;5.20;;
3433;SDS011;1730;41.932;25.548;2023-04-06T14:31:32;4.83;;;4.50;;
3433;SDS011;1730;41.932;25.548;2023-04-06T14:34:00;8.03;;;7.37;;
3433;SDS011;1730;41.932;25.548;2023-04-06T14:36:27;5.70;;;5.30;;
3433;SDS011;1730;41.932;25.548;2023-04-06T14:38:54;4.27;;;3.97;;
3433;SDS011;1730;41.932;25.548;2023-04-06T14:41:22;5.40;;;4.70;;
3433;SDS011;1730;41.932;25.548;2023-04-06T14:43:49;6.20;;;4.67;;
3433;SDS011;1730;41.932;25.548;2023-04-06T14:46:15;4.90;;;4.60;;
3433;SDS011;1730;41.932;25.548;2023-04-06T14:51:17;5.23;;;4.80;;
3433;SDS011;1730;41.932;25.548;2023-04-06T14:53:43;4.53;;;4.23;;
3433;SDS011;1730;41.932;25.548;2023-04-06T14:56:09;4.97;;;4.60;;
3433;SDS011;1730;41.932;25.548;2023-04-06T14:58:36;5.23;;;4.73;;
3433;SDS011;1730;41.932;25.548;2023-04-06T15:01:03;3.83;;;3.63;;
3433;SDS011;1730;41.932;25.548;2023-04-06T15:03:29;5.50;;;5.07;;
3433;SDS011;1730;41.932;25.548;2023-04-06T15:05:55;5.97;;;5.47;;